sensor_id;sensor_type;location;lat;lon;timestamp;pressure;altitude;pressure_sealevel;temperature;humidity
5574;BME280;2563;52.242;7.956;2023-12-20T00:02:07;100517.28;;;6.03;100.00
5574;BME280;2563;52.242;7.956;2023-12-20T00:04:32;100524.13;;;5.98;100.00
5574;BME280;2563;52.242;7.956;2023-12-20T00:06:57;100523.28;;;5.96;100.00
5574;BME280;2563;52.242;7.956;2023-12-20T00:09:23;100536.91;;;5.95;100.00
5574;BME280;2563;52.242;7.956;2023-12-20T00:11:48;100541.19;;;5.90;100.00
5574;BME280;2563;52.242;7.956;2023-12-20T00:14:13;100553.94;;;5.90;100.00
5574;BME280;2563;52.242;7.956;2023-12-20T00:16:39;100566.69;;;5.93;100.00
5574;BME280;2563;52.242;7.956;2023-12-20T00:19:04;100565.84;;;5.92;100.00
5574;BME280;2563;52.242;7.956;2023-12-20T00:21:29;100568.41;;;5.97;100.00
5574;BME280;2563;52.242;7.956;2023-12-20T00:23:55;100576.06;;;6.00;100.00
5574;BME280;2563;52.242;7.956;2023-12-20T00:26:20;100573.47;;;6.03;100.00
5574;BME280;2563;52.242;7.956;2023-12-20T00:28:45;100569.22;;;6.05;100.00
5574;BME280;2563;52.242;7.956;2023-12-20T00:31:11;100581.97;;;6.11;100.00
5574;BME280;2563;52.242;7.956;2023-12-20T00:33:36;100584.53;;;6.11;100.00
5574;BME280;2563;52.242;7.956;2023-12-20T00:36:01;100568.34;;;6.08;100.00
5574;BME280;2563;52.242;7.956;2023-12-20T00:38:27;100560.66;;;6.12;100.00
5574;BME280;2563;52.242;7.956;2023-12-20T00:40:52;100574.28;;;6.14;100.00
5574;BME280;2563;52.242;7.956;2023-12-20T00:43:17;100575.16;;;6.07;100.00
5574;BME280;2563;52.242;7.956;2023-12-20T00:45:43;100570.09;;;6.06;100.00
5574;BME280;2563;52.242;7.956;2023-12-20T00:48:08;100580.28;;;6.07;100.00
5574;BME280;2563;52.242;7.956;2023-12-20T00:50:33;100556.44;;;6.07;100.00
5574;BME280;2563;52.242;7.956;2023-12-20T00:52:59;100551.31;;;6.10;100.00
5574;BME280;2563;52.242;7.956;2023-12-20T00:55:24;100581.09;;;6.14;100.00
5574;BME280;2563;52.242;7.956;2023-12-20T00:57:49;100581.94;;;6.14;100.00
5574;BME280;2563;52.242;7.956;2023-12-20T01:00:15;100591.31;;;6.15;100.00
5574;BME280;2563;52.242;7.956;2023-12-20T01:02:40;100578.59;;;6.05;100.00
5574;BME280;2563;52.242;7.956;2023-12-20T01:05:06;100573.53;;;5.97;100.00
5574;BME280;2563;52.242;7.956;2023-12-20T01:07:32;100558.19;;;5.91;100.00
5574;BME280;2563;52.242;7.956;2023-12-20T01:09:58;100555.66;;;5.86;100.00
5574;BME280;2563;52.242;7.956;2023-12-20T01:12:23;100550.56;;;5.82;100.00
5574;BME280;2563;52.242;7.956;2023-12-20T01:14:48;100548.91;;;5.78;100.00
5574;BME280;2563;52.242;7.956;2023-12-20T01:17:14;100531.00;;;5.79;100.00
5574;BME280;2563;52.242;7.956;2023-12-20T01:19:39;100531.03;;;5.78;100.00
5574;BME280;2563;52.242;7.956;2023-12-20T01:22:04;100527.66;;;5.72;100.00
5574;BME280;2563;52.242;7.956;2023-12-20T01:24:30;100525.94;;;5.71;100.00
5574;BME280;2563;52.242;7.956;2023-12-20T01:26:55;100530.16;;;5.79;100.00
5574;BME280;2563;52.242;7.956;2023-12-20T01:29:20;100523.34;;;5.81;100.00
5574;BME280;2563;52.242;7.956;2023-12-20T01:31:46;100524.19;;;5.78;100.00
5574;BME280;2563;52.242;7.956;2023-12-20T01:34:11;100516.59;;;5.70;100.00
5574;BME280;2563;52.242;7.956;2023-12-20T01:36:36;100503.88;;;5.55;100.00
5574;BME280;2563;52.242;7.956;2023-12-20T01:39:02;100486.91;;;5.45;100.00
5574;BME280;2563;52.242;7.956;2023-12-20T01:41:27;100479.25;;;5.39;100.00
5574;BME280;2563;52.242;7.956;2023-12-20T01:43:52;100476.72;;;5.37;100.00
5574;BME280;2563;52.242;7.956;2023-12-20T01:46:20;100464.00;;;5.29;100.00
5574;BME280;2563;52.242;7.956;2023-12-20T01:48:46;100470.78;;;5.29;100.00
5574;BME280;2563;52.242;7.956;2023-12-20T01:51:11;100470.00;;;5.22;100.00
5574;BME280;2563;52.242;7.956;2023-12-20T01:53:38;100459.78;;;5.16;100.00
5574;BME280;2563;52.242;7.956;2023-12-20T01:56:08;100442.84;;;5.03;100.00
5574;BME280;2563;52.242;7.956;2023-12-20T01:58:34;100443.72;;;4.93;100.00
5574;BME280;2563;52.242;7.956;2023-12-20T02:01:00;100440.31;;;4.97;100.00
5574;BME280;2563;52.242;7.956;2023-12-20T02:03:25;100435.22;;;4.86;100.00
5574;BME280;2563;52.242;7.956;2023-12-20T02:05:51;100430.97;;;4.89;100.00
5574;BME280;2563;52.242;7.956;2023-12-20T02:08:16;100441.16;;;4.93;100.00
5574;BME280;2563;52.242;7.956;2023-12-20T02:10:42;100446.31;;;4.77;100.00
5574;BME280;2563;52.242;7.956;2023-12-20T02:13:07;100459.03;;;4.94;100.00
5574;BME280;2563;52.242;7.956;2023-12-20T02:15:32;100470.06;;;4.93;100.00
5574;BME280;2563;52.242;7.956;2023-12-20T02:17:58;100476.03;;;4.98;100.00
5574;BME280;2563;52.242;7.956;2023-12-20T02:20:24;100477.72;;;5.01;100.00
5574;BME280;2563;52.242;7.956;2023-12-20T02:22:49;100481.09;;;5.06;100.00
5574;BME280;2563;52.242;7.956;2023-12-20T02:25:14;100505.72;;;5.21;100.00
5574;BME280;2563;52.242;7.956;2023-12-20T02:27:40;100506.53;;;5.30;100.00
5574;BME280;2563;52.242;7.956;2023-12-20T02:30:06;100501.44;;;5.27;100.00
5574;BME280;2563;52.242;7.956;2023-12-20T02:32:31;100518.44;;;5.28;100.00
5574;BME280;2563;52.242;7.956;2023-12-20T02:34:57;100517.59;;;5.32;100.00
5574;BME280;2563;52.242;7.956;2023-12-20T02:37:23;100532.88;;;5.40;100.00
5574;BME280;2563;52.242;7.956;2023-12-20T02:39:48;100532.00;;;5.43;100.00
5574;BME280;2563;52.242;7.956;2023-12-20T02:42:13;100526.91;;;5.40;100.00
5574;BME280;2563;52.242;7.956;2023-12-20T02:44:39;100523.50;;;5.41;100.00
5574;BME280;2563;52.242;7.956;2023-12-20T02:47:04;100522.63;;;5.45;100.00
5574;BME280;2563;52.242;7.956;2023-12-20T02:49:29;100523.50;;;5.44;100.00
5574;BME280;2563;52.242;7.956;2023-12-20T02:51:55;100515.00;;;5.39;100.00
5574;BME280;2563;52.242;7.956;2023-12-20T02:54:20;100511.63;;;5.33;100.00
5574;BME280;2563;52.242;7.956;2023-12-20T02:56:46;100503.13;;;5.28;100.00
5574;BME280;2563;52.242;7.956;2023-12-20T02:59:11;100504.81;;;5.26;100.00
5574;BME280;2563;52.242;7.956;2023-12-20T03:01:44;100502.25;;;5.36;100.00
5574;BME280;2563;52.242;7.956;2023-12-20T03:04:10;100507.34;;;5.36;100.00
5574;BME280;2563;52.242;7.956;2023-12-20T03:06:35;100491.22;;;5.30;100.00
5574;BME280;2563;52.242;7.956;2023-12-20T03:09:01;100481.88;;;5.25;100.00
5574;BME280;2563;52.242;7.956;2023-12-20T03:11:27;100483.59;;;5.24;100.00
5574;BME280;2563;52.242;7.956;2023-12-20T03:13:53;100486.13;;;5.27;100.00
5574;BME280;2563;52.242;7.956;2023-12-20T03:16:18;100478.44;;;5.35;100.00
5574;BME280;2563;52.242;7.956;2023-12-20T03:18:43;100475.91;;;5.37;100.00
5574;BME280;2563;52.242;7.956;2023-12-20T03:21:09;100470.78;;;5.30;100.00
5574;BME280;2563;52.242;7.956;2023-12-20T03:23:34;100469.97;;;5.27;100.00
5574;BME280;2563;52.242;7.956;2023-12-20T03:25:59;100455.47;;;5.29;100.00
5574;BME280;2563;52.242;7.956;2023-12-20T03:28:26;100447.00;;;5.19;100.00
5574;BME280;2563;52.242;7.956;2023-12-20T03:30:51;100466.59;;;5.20;100.00
5574;BME280;2563;52.242;7.956;2023-12-20T03:33:17;100449.56;;;5.24;100.00
5574;BME280;2563;52.242;7.956;2023-12-20T03:35:42;100447.00;;;5.30;100.00
5574;BME280;2563;52.242;7.956;2023-12-20T03:38:08;100444.47;;;5.22;100.00
5574;BME280;2563;52.242;7.956;2023-12-20T03:40:33;100446.16;;;5.22;100.00
5574;BME280;2563;52.242;7.956;2023-12-20T03:42:58;100437.66;;;5.26;100.00
5574;BME280;2563;52.242;7.956;2023-12-20T03:45:24;100439.31;;;5.31;100.00
5574;BME280;2563;52.242;7.956;2023-12-20T03:47:49;100432.50;;;5.33;100.00
5574;BME280;2563;52.242;7.956;2023-12-20T03:50:15;100433.34;;;5.36;100.00
5574;BME280;2563;52.242;7.956;2023-12-20T03:52:40;100429.94;;;5.38;100.00
5574;BME280;2563;52.242;7.956;2023-12-20T03:55:06;100421.41;;;5.41;100.00
5574;BME280;2563;52.242;7.956;2023-12-20T03:57:31;100422.25;;;5.44;100.00
5574;BME280;2563;52.242;7.956;2023-12-20T03:59:56;100409.50;;;5.43;100.00
5574;BME280;2563;52.242;7.956;2023-12-20T04:02:22;100424.81;;;5.40;100.00
5574;BME280;2563;52.242;7.956;2023-12-20T04:04:47;100414.63;;;5.40;100.00
5574;BME280;2563;52.242;7.956;2023-12-20T04:07:12;100415.47;;;5.40;100.00
5574;BME280;2563;52.242;7.956;2023-12-20T04:09:38;100414.59;;;5.44;100.00
5574;BME280;2563;52.242;7.956;2023-12-20T04:12:03;100423.09;;;5.45;100.00
5574;BME280;2563;52.242;7.956;2023-12-20T04:14:30;100414.56;;;5.46;100.00
5574;BME280;2563;52.242;7.956;2023-12-20T04:16:55;100418.00;;;5.46;100.00
5574;BME280;2563;52.242;7.956;2023-12-20T04:19:21;100423.91;;;5.50;100.00
5574;BME280;2563;52.242;7.956;2023-12-20T04:21:46;100411.16;;;5.50;100.00
5574;BME280;2563;52.242;7.956;2023-12-20T04:24:11;100409.47;;;5.47;100.00
5574;BME280;2563;52.242;7.956;2023-12-20T04:26:36;100409.41;;;5.55;100.00
5574;BME280;2563;52.242;7.956;2023-12-20T04:29:02;100415.34;;;5.60;100.00
5574;BME280;2563;52.242;7.956;2023-12-20T04:31:27;100405.13;;;5.60;100.00
5574;BME280;2563;52.242;7.956;2023-12-20T04:33:52;100401.72;;;5.61;100.00
5574;BME280;2563;52.242;7.956;2023-12-20T04:36:18;100395.75;;;5.62;100.00
5574;BME280;2563;52.242;7.956;2023-12-20T04:38:43;100387.25;;;5.62;100.00
5574;BME280;2563;52.242;7.956;2023-12-20T04:41:09;100376.19;;;5.61;100.00
5574;BME280;2563;52.242;7.956;2023-12-20T04:43:34;100384.69;;;5.62;100.00
5574;BME280;2563;52.242;7.956;2023-12-20T04:45:59;100378.78;;;5.58;100.00
5574;BME280;2563;52.242;7.956;2023-12-20T04:48:25;100361.75;;;5.57;100.00
5574;BME280;2563;52.242;7.956;2023-12-20T04:50:50;100363.47;;;5.58;100.00
5574;BME280;2563;52.242;7.956;2023-12-20T04:53:15;100354.91;;;5.64;100.00
5574;BME280;2563;52.242;7.956;2023-12-20T04:55:41;100351.53;;;5.59;100.00
5574;BME280;2563;52.242;7.956;2023-12-20T04:58:06;100357.53;;;5.51;100.00
5574;BME280;2563;52.242;7.956;2023-12-20T05:00:31;100349.03;;;5.49;100.00
5574;BME280;2563;52.242;7.956;2023-12-20T05:02:56;100349.91;;;5.47;100.00
5574;BME280;2563;52.242;7.956;2023-12-20T05:05:22;100341.38;;;5.48;100.00
5574;BME280;2563;52.242;7.956;2023-12-20T05:07:47;100342.25;;;5.47;100.00
5574;BME280;2563;52.242;7.956;2023-12-20T05:10:13;100341.38;;;5.51;100.00
5574;BME280;2563;52.242;7.956;2023-12-20T05:12:38;100331.09;;;5.60;100.00
5574;BME280;2563;52.242;7.956;2023-12-20T05:15:05;100331.91;;;5.64;100.00
5574;BME280;2563;52.242;7.956;2023-12-20T05:17:31;100332.75;;;5.64;100.00
5574;BME280;2563;52.242;7.956;2023-12-20T05:19:56;100327.63;;;5.67;100.00
5574;BME280;2563;52.242;7.956;2023-12-20T05:22:22;100319.97;;;5.67;100.00
5574;BME280;2563;52.242;7.956;2023-12-20T05:24:47;100313.97;;;5.71;100.00
5574;BME280;2563;52.242;7.956;2023-12-20T05:27:12;100305.44;;;5.75;100.00
5574;BME280;2563;52.242;7.956;2023-12-20T05:29:38;100289.28;;;5.75;100.00
5574;BME280;2563;52.242;7.956;2023-12-20T05:32:03;100288.41;;;5.74;100.00
5574;BME280;2563;52.242;7.956;2023-12-20T05:34:30;100272.22;;;5.79;100.00
5574;BME280;2563;52.242;7.956;2023-12-20T05:36:55;100260.28;;;5.81;100.00
5574;BME280;2563;52.242;7.956;2023-12-20T05:39:21;100258.56;;;5.81;100.00
5574;BME280;2563;52.242;7.956;2023-12-20T05:41:47;100241.56;;;5.80;100.00
5574;BME280;2563;52.242;7.956;2023-12-20T05:44:13;100238.16;;;5.80;100.00
5574;BME280;2563;52.242;7.956;2023-12-20T05:46:38;100239.81;;;5.87;100.00
5574;BME280;2563;52.242;7.956;2023-12-20T05:49:05;100233.78;;;5.91;100.00
5574;BME280;2563;52.242;7.956;2023-12-20T05:51:30;100227.81;;;5.92;100.00
5574;BME280;2563;52.242;7.956;2023-12-20T05:53:55;100208.25;;;5.91;100.00
5574;BME280;2563;52.242;7.956;2023-12-20T05:56:21;100205.69;;;5.91;100.00
5574;BME280;2563;52.242;7.956;2023-12-20T05:58:47;100192.91;;;5.91;100.00
5574;BME280;2563;52.242;7.956;2023-12-20T06:01:14;100182.72;;;5.94;100.00
5574;BME280;2563;52.242;7.956;2023-12-20T06:03:41;100175.84;;;5.96;100.00
5574;BME280;2563;52.242;7.956;2023-12-20T06:06:07;100159.69;;;5.97;100.00
5574;BME280;2563;52.242;7.956;2023-12-20T06:08:32;100151.13;;;6.01;100.00
5574;BME280;2563;52.242;7.956;2023-12-20T06:10:58;100138.34;;;6.01;100.00
5574;BME280;2563;52.242;7.956;2023-12-20T06:13:23;100127.31;;;5.99;100.00
5574;BME280;2563;52.242;7.956;2023-12-20T06:15:48;100105.22;;;5.95;100.00
5574;BME280;2563;52.242;7.956;2023-12-20T06:18:14;100100.94;;;5.97;100.00
5574;BME280;2563;52.242;7.956;2023-12-20T06:20:39;100081.34;;;5.97;100.00
5574;BME280;2563;52.242;7.956;2023-12-20T06:23:04;100069.44;;;5.96;100.00
5574;BME280;2563;52.242;7.956;2023-12-20T06:25:30;100062.59;;;5.99;100.00
5574;BME280;2563;52.242;7.956;2023-12-20T06:27:55;100037.91;;;5.96;100.00
5574;BME280;2563;52.242;7.956;2023-12-20T06:30:20;100032.81;;;5.96;100.00
5574;BME280;2563;52.242;7.956;2023-12-20T06:32:46;100001.31;;;5.95;100.00
5574;BME280;2563;52.242;7.956;2023-12-20T06:35:12;99983.44;;;5.97;100.00
5574;BME280;2563;52.242;7.956;2023-12-20T06:37:37;99963.84;;;5.97;100.00
5574;BME280;2563;52.242;7.956;2023-12-20T06:40:03;99946.78;;;5.98;100.00
5574;BME280;2563;52.242;7.956;2023-12-20T06:42:28;99933.16;;;5.99;100.00
5574;BME280;2563;52.242;7.956;2023-12-20T06:44:54;99909.34;;;5.99;100.00
5574;BME280;2563;52.242;7.956;2023-12-20T06:47:19;99882.09;;;5.97;100.00
5574;BME280;2563;52.242;7.956;2023-12-20T06:49:44;99876.97;;;5.99;100.00
5574;BME280;2563;52.242;7.956;2023-12-20T06:52:10;99859.84;;;6.04;100.00
5574;BME280;2563;52.242;7.956;2023-12-20T06:54:35;99839.34;;;6.07;100.00
5574;BME280;2563;52.242;7.956;2023-12-20T06:57:01;99816.34;;;6.09;100.00
5574;BME280;2563;52.242;7.956;2023-12-20T06:59:28;99788.25;;;6.09;100.00
5574;BME280;2563;52.242;7.956;2023-12-20T07:01:53;99775.50;;;6.07;100.00
5574;BME280;2563;52.242;7.956;2023-12-20T07:04:19;99755.03;;;6.09;100.00
5574;BME280;2563;52.242;7.956;2023-12-20T07:06:47;99744.84;;;6.07;100.00
5574;BME280;2563;52.242;7.956;2023-12-20T07:09:13;99715.06;;;6.06;100.00
5574;BME280;2563;52.242;7.956;2023-12-20T07:11:39;99718.47;;;6.07;100.00
5574;BME280;2563;52.242;7.956;2023-12-20T07:14:04;99709.13;;;6.06;100.00
5574;BME280;2563;52.242;7.956;2023-12-20T07:16:29;99715.09;;;6.05;100.00
5574;BME280;2563;52.242;7.956;2023-12-20T07:18:55;99705.66;;;6.08;100.00
5574;BME280;2563;52.242;7.956;2023-12-20T07:21:21;99697.13;;;6.09;100.00
5574;BME280;2563;52.242;7.956;2023-12-20T07:23:47;99690.34;;;6.08;100.00
5574;BME280;2563;52.242;7.956;2023-12-20T07:26:12;99679.22;;;6.11;100.00
5574;BME280;2563;52.242;7.956;2023-12-20T07:28:37;99679.97;;;6.14;100.00
5574;BME280;2563;52.242;7.956;2023-12-20T07:31:03;99670.59;;;6.15;100.00
5574;BME280;2563;52.242;7.956;2023-12-20T07:33:28;99662.97;;;6.13;100.00
5574;BME280;2563;52.242;7.956;2023-12-20T07:35:54;99662.91;;;6.16;100.00
5574;BME280;2563;52.242;7.956;2023-12-20T07:38:19;99653.59;;;6.14;100.00
5574;BME280;2563;52.242;7.956;2023-12-20T07:40:44;99635.72;;;6.12;100.00
5574;BME280;2563;52.242;7.956;2023-12-20T07:43:10;99664.59;;;6.17;100.00
5574;BME280;2563;52.242;7.956;2023-12-20T07:45:35;99644.97;;;6.20;100.00
5574;BME280;2563;52.242;7.956;2023-12-20T07:48:00;99632.19;;;6.20;100.00
5574;BME280;2563;52.242;7.956;2023-12-20T07:50:26;99624.50;;;6.20;100.00
5574;BME280;2563;52.242;7.956;2023-12-20T07:52:52;99624.47;;;6.23;100.00
5574;BME280;2563;52.242;7.956;2023-12-20T07:55:18;99622.69;;;6.26;100.00
5574;BME280;2563;52.242;7.956;2023-12-20T07:57:43;99618.41;;;6.27;100.00
5574;BME280;2563;52.242;7.956;2023-12-20T08:00:09;99603.06;;;6.27;100.00
5574;BME280;2563;52.242;7.956;2023-12-20T08:02:35;99603.91;;;6.27;100.00
5574;BME280;2563;52.242;7.956;2023-12-20T08:05:00;99585.06;;;6.31;100.00
5574;BME280;2563;52.242;7.956;2023-12-20T08:07:25;99566.44;;;6.28;100.00
5574;BME280;2563;52.242;7.956;2023-12-20T08:09:51;99571.50;;;6.29;100.00
5574;BME280;2563;52.242;7.956;2023-12-20T08:12:17;99581.59;;;6.35;100.00
5574;BME280;2563;52.242;7.956;2023-12-20T08:14:42;99562.81;;;6.36;100.00
5574;BME280;2563;52.242;7.956;2023-12-20T08:17:07;99568.78;;;6.37;100.00
5574;BME280;2563;52.242;7.956;2023-12-20T08:19:33;99562.72;;;6.41;100.00
5574;BME280;2563;52.242;7.956;2023-12-20T08:21:58;99551.63;;;6.42;100.00
5574;BME280;2563;52.242;7.956;2023-12-20T08:24:23;99553.28;;;6.43;100.00
5574;BME280;2563;52.242;7.956;2023-12-20T08:26:49;99551.63;;;6.42;100.00
5574;BME280;2563;52.242;7.956;2023-12-20T08:29:14;99549.81;;;6.46;100.00
5574;BME280;2563;52.242;7.956;2023-12-20T08:31:39;99543.88;;;6.45;100.00
5574;BME280;2563;52.242;7.956;2023-12-20T08:34:05;99537.03;;;6.47;100.00
5574;BME280;2563;52.242;7.956;2023-12-20T08:36:30;99532.72;;;6.49;100.00
5574;BME280;2563;52.242;7.956;2023-12-20T08:38:56;99543.78;;;6.50;100.00
5574;BME280;2563;52.242;7.956;2023-12-20T08:41:21;99535.19;;;6.52;100.00
5574;BME280;2563;52.242;7.956;2023-12-20T08:43:46;99534.34;;;6.52;100.00
5574;BME280;2563;52.242;7.956;2023-12-20T08:46:13;99536.00;;;6.54;100.00
5574;BME280;2563;52.242;7.956;2023-12-20T08:48:39;99536.81;;;6.56;100.00
5574;BME280;2563;52.242;7.956;2023-12-20T08:51:04;99511.25;;;6.56;100.00
5574;BME280;2563;52.242;7.956;2023-12-20T08:53:32;99519.75;;;6.57;100.00
5574;BME280;2563;52.242;7.956;2023-12-20T08:55:58;99504.41;;;6.57;100.00
5574;BME280;2563;52.242;7.956;2023-12-20T08:58:26;99506.97;;;6.55;100.00
5574;BME280;2563;52.242;7.956;2023-12-20T09:00:51;99513.78;;;6.56;100.00
5574;BME280;2563;52.242;7.956;2023-12-20T09:03:17;99510.34;;;6.57;100.00
5574;BME280;2563;52.242;7.956;2023-12-20T09:05:42;99509.44;;;6.60;100.00
5574;BME280;2563;52.242;7.956;2023-12-20T09:08:07;99506.00;;;6.61;100.00
5574;BME280;2563;52.242;7.956;2023-12-20T09:10:35;99505.00;;;6.67;100.00
5574;BME280;2563;52.242;7.956;2023-12-20T09:13:00;99510.97;;;6.67;100.00
5574;BME280;2563;52.242;7.956;2023-12-20T09:15:26;99498.22;;;6.66;100.00
5574;BME280;2563;52.242;7.956;2023-12-20T09:17:52;99503.25;;;6.69;100.00
5574;BME280;2563;52.242;7.956;2023-12-20T09:20:18;99499.06;;;6.66;100.00
5574;BME280;2563;52.242;7.956;2023-12-20T09:22:43;99501.50;;;6.71;100.00
5574;BME280;2563;52.242;7.956;2023-12-20T09:25:09;99486.97;;;6.73;100.00
5574;BME280;2563;52.242;7.956;2023-12-20T09:27:35;99485.78;;;6.85;100.00
5574;BME280;2563;52.242;7.956;2023-12-20T09:30:01;99483.16;;;6.88;100.00
5574;BME280;2563;52.242;7.956;2023-12-20T09:32:26;99479.72;;;6.89;100.00
5574;BME280;2563;52.242;7.956;2023-12-20T09:34:51;99488.41;;;6.83;100.00
5574;BME280;2563;52.242;7.956;2023-12-20T09:37:17;99487.84;;;6.72;100.00
5574;BME280;2563;52.242;7.956;2023-12-20T09:39:42;99487.03;;;6.70;100.00
5574;BME280;2563;52.242;7.956;2023-12-20T09:42:07;99487.03;;;6.70;100.00
5574;BME280;2563;52.242;7.956;2023-12-20T09:44:33;99488.78;;;6.68;100.00
5574;BME280;2563;52.242;7.956;2023-12-20T09:47:03;99500.66;;;6.70;100.00
5574;BME280;2563;52.242;7.956;2023-12-20T09:49:29;99500.66;;;6.70;100.00
5574;BME280;2563;52.242;7.956;2023-12-20T09:51:56;99503.91;;;6.77;100.00
5574;BME280;2563;52.242;7.956;2023-12-20T09:54:22;99506.63;;;6.71;100.00
5574;BME280;2563;52.242;7.956;2023-12-20T09:56:48;99505.91;;;6.66;100.00
5574;BME280;2563;52.242;7.956;2023-12-20T09:59:14;99518.69;;;6.66;100.00
5574;BME280;2563;52.242;7.956;2023-12-20T10:01:40;99521.25;;;6.66;100.00
5574;BME280;2563;52.242;7.956;2023-12-20T10:04:07;99528.78;;;6.70;100.00
5574;BME280;2563;52.242;7.956;2023-12-20T10:06:36;99534.75;;;6.71;100.00
5574;BME280;2563;52.242;7.956;2023-12-20T10:09:01;99539.06;;;6.69;100.00
5574;BME280;2563;52.242;7.956;2023-12-20T10:11:27;99531.28;;;6.73;100.00
5574;BME280;2563;52.242;7.956;2023-12-20T10:13:59;99538.13;;;6.73;100.00
5574;BME280;2563;52.242;7.956;2023-12-20T10:16:25;99540.66;;;6.73;100.00
5574;BME280;2563;52.242;7.956;2023-12-20T10:18:53;99538.03;;;6.76;100.00
5574;BME280;2563;52.242;7.956;2023-12-20T10:21:18;99539.59;;;6.81;100.00
5574;BME280;2563;52.242;7.956;2023-12-20T10:23:43;99549.59;;;6.89;100.00
5574;BME280;2563;52.242;7.956;2023-12-20T10:26:09;99546.91;;;6.95;100.00
5574;BME280;2563;52.242;7.956;2023-12-20T10:28:35;99538.44;;;6.93;100.00
5574;BME280;2563;52.242;7.956;2023-12-20T10:31:00;99520.56;;;6.92;100.00
5574;BME280;2563;52.242;7.956;2023-12-20T10:33:27;99512.03;;;6.93;100.00
5574;BME280;2563;52.242;7.956;2023-12-20T10:35:54;99510.19;;;6.98;100.00
5574;BME280;2563;52.242;7.956;2023-12-20T10:38:19;99510.28;;;6.95;100.00
5574;BME280;2563;52.242;7.956;2023-12-20T10:40:45;99503.25;;;7.01;100.00
5574;BME280;2563;52.242;7.956;2023-12-20T10:43:12;99502.47;;;6.99;100.00
5574;BME280;2563;52.242;7.956;2023-12-20T10:45:37;99497.25;;;7.02;100.00
5574;BME280;2563;52.242;7.956;2023-12-20T10:48:04;99488.34;;;7.16;100.00
5574;BME280;2563;52.242;7.956;2023-12-20T10:50:30;99479.72;;;7.20;100.00
5574;BME280;2563;52.242;7.956;2023-12-20T10:52:57;99480.75;;;7.14;100.00
5574;BME280;2563;52.242;7.956;2023-12-20T10:55:23;99477.38;;;7.12;100.00
5574;BME280;2563;52.242;7.956;2023-12-20T10:57:50;99465.56;;;7.08;100.00
5574;BME280;2563;52.242;7.956;2023-12-20T11:00:17;99464.63;;;7.11;100.00
5574;BME280;2563;52.242;7.956;2023-12-20T11:02:43;99463.41;;;7.24;100.00
5574;BME280;2563;52.242;7.956;2023-12-20T11:08:12;99448.81;;;7.57;100.00
5574;BME280;2563;52.242;7.956;2023-12-20T11:11:02;99451.03;;;7.68;100.00
5574;BME280;2563;52.242;7.956;2023-12-20T11:13:33;99439.72;;;7.75;100.00
5574;BME280;2563;52.242;7.956;2023-12-20T11:16:02;99428.44;;;7.54;100.00
5574;BME280;2563;52.242;7.956;2023-12-20T11:18:29;99414.06;;;7.49;100.00
5574;BME280;2563;52.242;7.956;2023-12-20T11:20:55;99423.56;;;7.45;100.00
5574;BME280;2563;52.242;7.956;2023-12-20T11:23:27;99417.78;;;7.38;100.00
5574;BME280;2563;52.242;7.956;2023-12-20T11:25:54;99406.72;;;7.38;100.00
5574;BME280;2563;52.242;7.956;2023-12-20T11:28:22;99406.22;;;7.25;100.00
5574;BME280;2563;52.242;7.956;2023-12-20T11:30:51;99412.38;;;7.19;100.00
5574;BME280;2563;52.242;7.956;2023-12-20T11:33:17;99416.00;;;7.11;100.00
5574;BME280;2563;52.242;7.956;2023-12-20T11:35:46;99411.88;;;7.07;100.00
5574;BME280;2563;52.242;7.956;2023-12-20T11:38:13;99415.50;;;6.99;100.00
5574;BME280;2563;52.242;7.956;2023-12-20T11:40:41;99423.88;;;7.05;100.00
5574;BME280;2563;52.242;7.956;2023-12-20T11:43:07;99421.22;;;7.08;100.00
5574;BME280;2563;52.242;7.956;2023-12-20T11:45:33;99416.09;;;7.08;100.00
5574;BME280;2563;52.242;7.956;2023-12-20T11:48:01;99414.38;;;7.08;100.00
5574;BME280;2563;52.242;7.956;2023-12-20T11:50:27;99422.75;;;7.13;100.00
5574;BME280;2563;52.242;7.956;2023-12-20T11:52:53;99420.41;;;7.06;100.00
5574;BME280;2563;52.242;7.956;2023-12-20T11:55:21;99432.59;;;6.97;100.00
5574;BME280;2563;52.242;7.956;2023-12-20T11:57:46;99421.56;;;6.95;100.00
5574;BME280;2563;52.242;7.956;2023-12-20T12:00:13;99442.03;;;6.95;100.00
5574;BME280;2563;52.242;7.956;2023-12-20T12:02:39;99450.59;;;6.94;100.00
5574;BME280;2563;52.242;7.956;2023-12-20T12:05:05;99465.28;;;6.86;100.00
5574;BME280;2563;52.242;7.956;2023-12-20T12:07:31;99478.97;;;6.85;100.00
5574;BME280;2563;52.242;7.956;2023-12-20T12:09:57;99493.66;;;6.77;100.00
5574;BME280;2563;52.242;7.956;2023-12-20T12:12:23;99487.94;;;6.33;100.00
5574;BME280;2563;52.242;7.956;2023-12-20T12:14:50;99503.41;;;6.27;100.00
5574;BME280;2563;52.242;7.956;2023-12-20T12:17:16;99500.81;;;6.30;100.00
5574;BME280;2563;52.242;7.956;2023-12-20T12:19:42;99511.66;;;6.39;100.00
5574;BME280;2563;52.242;7.956;2023-12-20T12:22:09;99520.16;;;6.40;100.00
5574;BME280;2563;52.242;7.956;2023-12-20T12:24:42;99543.16;;;6.40;100.00
5574;BME280;2563;52.242;7.956;2023-12-20T12:27:08;99541.69;;;6.30;100.00
5574;BME280;2563;52.242;7.956;2023-12-20T12:29:34;99548.69;;;6.22;100.00
5574;BME280;2563;52.242;7.956;2023-12-20T12:32:00;99542.03;;;6.13;100.00
5574;BME280;2563;52.242;7.956;2023-12-20T12:34:29;99538.63;;;6.15;100.00
5574;BME280;2563;52.242;7.956;2023-12-20T12:36:55;99529.97;;;6.20;100.00
5574;BME280;2563;52.242;7.956;2023-12-20T12:39:20;99512.91;;;6.22;100.00
5574;BME280;2563;52.242;7.956;2023-12-20T12:41:46;99522.22;;;6.24;100.00
5574;BME280;2563;52.242;7.956;2023-12-20T12:44:11;99515.34;;;6.28;100.00
5574;BME280;2563;52.242;7.956;2023-12-20T12:46:36;99516.97;;;6.30;100.00
5574;BME280;2563;52.242;7.956;2023-12-20T12:49:02;99506.78;;;6.29;100.00
5574;BME280;2563;52.242;7.956;2023-12-20T12:51:27;99505.84;;;6.33;100.00
5574;BME280;2563;52.242;7.956;2023-12-20T12:53:53;99525.34;;;6.37;100.00
5574;BME280;2563;52.242;7.956;2023-12-20T12:56:18;99510.69;;;6.44;100.00
5574;BME280;2563;52.242;7.956;2023-12-20T12:58:44;99509.53;;;6.57;100.00
5574;BME280;2563;52.242;7.956;2023-12-20T13:01:09;99495.09;;;6.54;100.00
5574;BME280;2563;52.242;7.956;2023-12-20T13:03:35;99501.97;;;6.52;100.00
5574;BME280;2563;52.242;7.956;2023-12-20T13:06:01;99490.34;;;6.39;100.00
5574;BME280;2563;52.242;7.956;2023-12-20T13:08:26;99487.72;;;6.42;100.00
5574;BME280;2563;52.242;7.956;2023-12-20T13:10:52;99487.69;;;6.44;100.00
5574;BME280;2563;52.242;7.956;2023-12-20T13:13:17;99481.81;;;6.40;100.00